Time;durP1;ratioP1;P1;durP2;ratioP2;P2;SDS_P1;SDS_P2;PMS_P1;PMS_P2;Temp;Humidity;BMP_temperature;BMP_pressure;BME280_temperature;BME280_humidity;BME280_pressure;Samples;Min_cycle;Max_cycle;Signal;HPM_P1;HPM_P2
2023/08/31 00:02:07;;;;;;;8.85;1.38;;;13.70;99.90;;;;;;5046218;28;20207;-73
2023/08/31 00:04:33;;;;;;;7.65;1.65;;;;;;;;;;5050941;28;20220;-73
2023/08/31 00:06:59;;;;;;;6.40;1.27;;;13.60;99.90;;;;;;5032246;28;20181;-73
2023/08/31 00:09:24;;;;;;;8.93;1.52;;;13.50;99.90;;;;;;5039829;28;20230;-73
2023/08/31 00:11:50;;;;;;;3.42;1.80;;;13.50;99.90;;;;;;5050820;28;20244;-73
2023/08/31 00:14:17;;;;;;;3.67;1.50;;;13.40;99.90;;;;;;5032343;28;20269;-72
2023/08/31 00:16:45;;;;;;;6.35;1.50;;;13.80;99.90;;;;;;5034465;28;20204;-73
2023/08/31 00:19:11;;;;;;;6.72;1.60;;;13.80;99.90;;;;;;5035203;28;20182;-72
2023/08/31 00:21:37;;;;;;;4.28;1.50;;;13.70;99.90;;;;;;5031034;28;20659;-72
2023/08/31 00:24:04;;;;;;;5.70;1.60;;;13.50;99.90;;;;;;5049307;28;20235;-73
2023/08/31 00:26:30;;;;;;;4.10;1.50;;;13.60;99.90;;;;;;5046005;28;20193;-73
2023/08/31 00:28:58;;;;;;;4.53;1.50;;;13.50;99.90;;;;;;5037805;28;20173;-74
2023/08/31 00:31:23;;;;;;;5.78;1.52;;;13.50;99.90;;;;;;5050936;28;20169;-74
2023/08/31 00:33:50;;;;;;;8.27;1.45;;;13.40;99.90;;;;;;5050246;28;20686;-74
2023/08/31 00:36:16;;;;;;;5.50;1.73;;;13.70;99.90;;;;;;5050689;28;20169;-74
2023/08/31 00:38:42;;;;;;;4.72;1.50;;;13.40;99.90;;;;;;5050754;28;20246;-74
2023/08/31 00:41:07;;;;;;;4.60;1.67;;;13.20;99.90;;;;;;5050466;28;20258;-74
2023/08/31 00:43:33;;;;;;;4.78;1.60;;;13.40;99.90;;;;;;5049173;28;20209;-74
2023/08/31 00:45:59;;;;;;;6.22;1.90;;;13.30;99.90;;;;;;5050369;28;20657;-74
2023/08/31 00:48:25;;;;;;;5.13;1.52;;;13.40;99.90;;;;;;5050595;28;20179;-74
2023/08/31 00:50:51;;;;;;;3.85;1.35;;;13.20;99.90;;;;;;5050525;28;20177;-73
2023/08/31 00:53:18;;;;;;;6.43;1.85;;;13.10;99.90;;;;;;5050478;28;20169;-73
2023/08/31 00:55:45;;;;;;;5.18;1.50;;;13.30;99.90;;;;;;5050411;28;20196;-72
2023/08/31 00:58:11;;;;;;;2.78;1.30;;;13.20;99.90;;;;;;5050379;28;20170;-72
2023/08/31 01:01:01;;;;;;;3.92;1.60;;;13.20;99.90;;;;;;5049191;28;20196;-72
2023/08/31 01:03:43;;;;;;;6.28;1.75;;;13.00;99.90;;;;;;5050387;28;20217;-73
2023/08/31 01:06:17;;;;;;;4.50;1.67;;;13.00;99.90;;;;;;5050611;28;20199;-73
2023/08/31 01:08:55;;;;;;;5.15;1.50;;;12.90;99.90;;;;;;5050359;28;20165;-73
2023/08/31 01:11:36;;;;;;;7.22;1.75;;;13.00;99.90;;;;;;5050522;28;20181;-74
2023/08/31 01:14:15;;;;;;;5.07;1.30;;;13.00;99.90;;;;;;5050308;28;20170;-73
2023/08/31 01:16:43;;;;;;;10.20;2.22;;;12.90;99.90;;;;;;5048932;28;20188;-73
2023/08/31 01:19:32;;;;;;;3.70;1.48;;;12.90;99.90;;;;;;5050209;28;20198;-74
2023/08/31 01:22:03;;;;;;;5.30;1.58;;;13.00;99.90;;;;;;5048843;28;20697;-75
2023/08/31 01:24:30;;;;;;;7.55;1.77;;;13.00;99.90;;;;;;5050087;28;20258;-75
2023/08/31 01:26:57;;;;;;;8.10;1.75;;;12.90;99.90;;;;;;5054017;28;20169;-73
2023/08/31 01:29:23;;;;;;;4.72;1.70;;;13.00;99.90;;;;;;5053840;28;20177;-74
2023/08/31 01:31:48;;;;;;;6.22;1.58;;;13.00;99.90;;;;;;5044484;28;20177;-73
2023/08/31 01:34:14;;;;;;;6.68;1.60;;;12.80;99.90;;;;;;5034157;28;20192;-73
2023/08/31 01:36:47;;;;;;;6.75;1.65;;;12.80;99.90;;;;;;5050598;28;20662;-73
2023/08/31 01:39:46;;;;;;;5.13;2.08;;;12.40;99.90;;;;;;5042303;28;20173;-73
2023/08/31 01:42:15;;;;;;;7.00;1.88;;;13.00;99.90;;;;;;5053723;28;20185;-73
2023/08/31 01:44:42;;;;;;;4.78;1.70;;;12.90;99.90;;;;;;5053729;28;20216;-74
2023/08/31 01:47:09;;;;;;;8.68;1.90;;;12.90;99.90;;;;;;5052182;28;20169;-73
2023/08/31 01:49:39;;;;;;;8.57;1.92;;;12.90;99.90;;;;;;5053683;28;20184;-73
2023/08/31 01:52:05;;;;;;;5.68;1.67;;;13.10;99.90;;;;;;5053451;28;20195;-74
2023/08/31 01:54:31;;;;;;;4.65;1.80;;;13.20;99.90;;;;;;5053356;28;20221;-73
2023/08/31 01:56:57;;;;;;;8.73;1.75;;;12.80;99.90;;;;;;5053557;28;20216;-74
2023/08/31 01:59:22;;;;;;;3.25;1.83;;;13.00;99.90;;;;;;5053394;28;20216;-74
2023/08/31 02:01:48;;;;;;;5.95;1.63;;;13.00;99.90;;;;;;5052116;28;20180;-74
2023/08/31 02:04:13;;;;;;;5.47;1.83;;;13.30;99.90;;;;;;5053257;28;20204;-74
2023/08/31 02:06:39;;;;;;;5.22;1.67;;;;;;;;;;5053395;28;20181;-73
2023/08/31 02:09:06;;;;;;;8.02;1.70;;;13.10;99.90;;;;;;5053027;28;20558;-73
2023/08/31 02:11:31;;;;;;;8.68;1.88;;;13.10;99.90;;;;;;5053293;28;20176;-73
2023/08/31 02:13:58;;;;;;;10.25;1.98;;;13.10;99.90;;;;;;5053048;28;20186;-73
2023/08/31 02:16:24;;;;;;;6.57;2.00;;;13.10;99.90;;;;;;5051560;28;20169;-74
2023/08/31 02:18:49;;;;;;;6.80;1.83;;;13.10;99.90;;;;;;5052825;28;20199;-74
2023/08/31 02:21:15;;;;;;;6.30;2.03;;;12.70;99.90;;;;;;5053105;28;20238;-71
2023/08/31 02:23:40;;;;;;;7.40;2.10;;;13.20;99.90;;;;;;5052901;28;20658;-74
2023/08/31 02:26:06;;;;;;;6.47;1.83;;;13.00;99.90;;;;;;5051491;28;20733;-72
2023/08/31 02:28:32;;;;;;;8.75;1.65;;;13.30;99.90;;;;;;5052776;28;20628;-71
2023/08/31 02:30:59;;;;;;;7.47;1.80;;;13.10;99.90;;;;;;5052906;28;20177;-72
2023/08/31 02:33:25;;;;;;;3.42;1.83;;;13.10;99.90;;;;;;5044028;28;20224;-73
2023/08/31 02:35:50;;;;;;;5.00;1.88;;;13.20;99.90;;;;;;5031674;28;20170;-73
2023/08/31 02:38:16;;;;;;;6.38;1.73;;;13.20;99.90;;;;;;5032742;28;20719;-73
2023/08/31 02:40:42;;;;;;;7.00;1.60;;;13.20;99.90;;;;;;5032658;28;20221;-73
2023/08/31 02:43:08;;;;;;;2.75;1.73;;;13.10;99.90;;;;;;5032401;28;20225;-74
2023/08/31 02:45:34;;;;;;;7.88;1.98;;;13.20;99.90;;;;;;5032516;28;20185;-74
2023/08/31 02:48:00;;;;;;;6.47;1.98;;;13.30;99.90;;;;;;5031400;28;20634;-74
2023/08/31 02:50:25;;;;;;;7.68;1.77;;;13.20;99.90;;;;;;5032591;28;20174;-72
2023/08/31 02:52:51;;;;;;;7.05;1.70;;;13.10;99.90;;;;;;5032042;28;20184;-73
2023/08/31 02:55:16;;;;;;;4.43;1.80;;;13.10;99.90;;;;;;5032556;28;20266;-73
2023/08/31 02:57:42;;;;;;;5.18;1.80;;;13.10;99.90;;;;;;5032356;28;20174;-73
2023/08/31 03:00:12;;;;;;;3.78;1.65;;;13.00;99.90;;;;;;5032250;28;20177;-73
2023/08/31 03:02:38;;;;;;;4.80;1.48;;;13.30;99.90;;;;;;5038807;28;20205;-73
2023/08/31 03:05:04;;;;;;;5.22;2.05;;;13.00;99.90;;;;;;5050550;28;20591;-73
2023/08/31 03:07:30;;;;;;;5.65;1.90;;;13.10;99.90;;;;;;5051886;28;20263;-73
2023/08/31 03:09:55;;;;;;;5.18;2.22;;;13.20;99.90;;;;;;5051840;28;20181;-73
2023/08/31 03:12:21;;;;;;;3.45;1.80;;;13.00;99.90;;;;;;5051851;28;20187;-74
2023/08/31 03:14:47;;;;;;;4.22;1.52;;;13.10;99.90;;;;;;5051566;28;20181;-73
2023/08/31 03:17:13;;;;;;;6.15;2.35;;;13.20;99.90;;;;;;5051453;28;20190;-73
2023/08/31 03:19:39;;;;;;;4.88;1.90;;;12.90;99.90;;;;;;5050856;28;20185;-73
2023/08/31 03:22:04;;;;;;;4.07;1.98;;;13.20;99.90;;;;;;5034351;28;20170;-73
2023/08/31 03:24:32;;;;;;;4.32;1.80;;;13.10;99.90;;;;;;5051398;28;20204;-73
2023/08/31 03:26:58;;;;;;;6.10;1.80;;;13.00;99.90;;;;;;5040447;28;20184;-73
2023/08/31 03:29:23;;;;;;;5.25;2.10;;;13.10;99.90;;;;;;5049977;28;20244;-72
2023/08/31 03:31:49;;;;;;;3.78;1.85;;;13.20;99.90;;;;;;5038568;28;20185;-74
2023/08/31 03:34:15;;;;;;;5.43;1.95;;;13.10;99.90;;;;;;5031772;28;20637;-74
2023/08/31 03:36:41;;;;;;;5.65;1.92;;;13.40;99.90;;;;;;5034324;28;20170;-73
2023/08/31 03:39:06;;;;;;;4.65;1.90;;;13.10;99.90;;;;;;5032333;28;20313;-74
2023/08/31 03:41:35;;;;;;;2.80;1.77;;;;;;;;;;5031540;28;20174;-74
2023/08/31 03:44:00;;;;;;;6.20;1.88;;;13.10;99.90;;;;;;5031586;28;20303;-74
2023/08/31 03:46:26;;;;;;;4.65;2.03;;;13.00;99.90;;;;;;5050348;28;20327;-74
2023/08/31 03:48:52;;;;;;;3.63;2.05;;;12.90;99.90;;;;;;5050681;28;20189;-74
2023/08/31 03:51:18;;;;;;;6.10;2.08;;;13.00;99.90;;;;;;5032803;28;20189;-74
2023/08/31 03:53:44;;;;;;;5.47;1.67;;;13.10;99.90;;;;;;5051307;28;20181;-73
2023/08/31 03:56:11;;;;;;;3.60;1.70;;;13.20;99.90;;;;;;5050046;28;20181;-74
2023/08/31 03:58:37;;;;;;;8.18;2.25;;;13.30;99.90;;;;;;5050963;28;20183;-74
2023/08/31 04:01:03;;;;;;;7.07;2.20;;;13.10;99.90;;;;;;5048443;28;20169;-73
2023/08/31 04:03:28;;;;;;;3.75;1.83;;;13.20;99.90;;;;;;5049500;28;20213;-73
2023/08/31 04:05:57;;;;;;;9.02;2.20;;;13.10;99.90;;;;;;5049678;28;20183;-74
2023/08/31 04:08:23;;;;;;;4.03;2.05;;;12.90;99.90;;;;;;5038054;28;20679;-74
2023/08/31 04:10:48;;;;;;;7.47;2.17;;;14.20;99.90;;;;;;5050859;28;20173;-74
2023/08/31 04:13:14;;;;;;;7.00;2.00;;;13.20;99.90;;;;;;5050870;28;20180;-74
2023/08/31 04:15:40;;;;;;;5.00;2.17;;;13.20;99.90;;;;;;5050692;28;20256;-73
2023/08/31 04:18:05;;;;;;;9.05;2.13;;;13.10;99.90;;;;;;5049707;28;20671;-74
2023/08/31 04:20:33;;;;;;;6.25;1.80;;;13.10;99.90;;;;;;5050627;28;20169;-73
2023/08/31 04:22:58;;;;;;;5.85;2.08;;;13.00;99.90;;;;;;5050603;28;20273;-74
2023/08/31 04:25:24;;;;;;;3.58;1.77;;;13.20;99.90;;;;;;5050762;28;20169;-75
2023/08/31 04:27:50;;;;;;;3.40;1.60;;;12.90;99.90;;;;;;5050836;28;20169;-74
2023/08/31 04:30:15;;;;;;;5.65;2.08;;;13.20;99.90;;;;;;5050880;28;20165;-74
2023/08/31 04:32:42;;;;;;;5.38;2.35;;;13.00;99.90;;;;;;5050467;28;20173;-74
2023/08/31 04:35:08;;;;;;;4.25;1.80;;;;;;;;;;5050910;28;20177;-74
2023/08/31 04:37:33;;;;;;;4.33;1.90;;;13.20;99.90;;;;;;5050976;28;20177;-75
2023/08/31 04:39:59;;;;;;;6.68;2.45;;;13.20;99.90;;;;;;5050513;28;20294;-72
2023/08/31 04:42:25;;;;;;;3.17;1.85;;;13.10;99.90;;;;;;5050573;28;20169;-72
2023/08/31 04:44:51;;;;;;;4.60;1.80;;;13.10;99.90;;;;;;5050453;28;20180;-73
2023/08/31 04:47:16;;;;;;;4.57;2.03;;;13.00;99.90;;;;;;5049158;28;20200;-74
2023/08/31 04:49:42;;;;;;;5.25;1.98;;;13.20;99.90;;;;;;5050520;28;20177;-74
2023/08/31 04:52:08;;;;;;;5.97;2.13;;;13.00;99.90;;;;;;5050639;28;20208;-74
2023/08/31 04:54:34;;;;;;;7.55;2.08;;;;;;;;;;5050333;28;20620;-73
2023/08/31 04:56:59;;;;;;;7.75;2.03;;;13.00;99.90;;;;;;5050438;28;20173;-75
2023/08/31 04:59:25;;;;;;;12.05;1.85;;;13.20;99.90;;;;;;5051497;28;20193;-73
2023/08/31 05:01:51;;;;;;;6.85;2.13;;;13.00;99.90;;;;;;5054431;28;20260;-73
2023/08/31 05:04:16;;;;;;;6.13;2.17;;;13.00;99.90;;;;;;5054225;28;20217;-73
2023/08/31 05:06:42;;;;;;;3.72;2.03;;;13.60;99.90;;;;;;5053084;28;20266;-73
2023/08/31 05:09:08;;;;;;;6.32;1.95;;;13.10;99.90;;;;;;5048313;28;20268;-74
2023/08/31 05:11:33;;;;;;;5.03;2.22;;;13.40;99.90;;;;;;5036380;28;20292;-74
2023/08/31 05:13:59;;;;;;;4.93;1.90;;;13.20;99.90;;;;;;5035104;28;20583;-74
2023/08/31 05:16:25;;;;;;;8.82;2.20;;;13.30;99.90;;;;;;5033143;28;20165;-74
2023/08/31 05:18:50;;;;;;;7.03;1.98;;;13.30;99.90;;;;;;5034602;28;20189;-74
2023/08/31 05:21:16;;;;;;;7.53;2.23;;;13.70;99.90;;;;;;5034335;28;20174;-74
2023/08/31 05:23:42;;;;;;;6.80;1.90;;;;;;;;;;5047497;28;20578;-73
2023/08/31 05:26:08;;;;;;;3.53;1.90;;;13.20;99.90;;;;;;5034820;28;20669;-73
2023/08/31 05:28:33;;;;;;;10.27;2.03;;;13.30;99.90;;;;;;5034341;28;20188;-73
2023/08/31 05:31:02;;;;;;;4.60;2.00;;;13.90;99.90;;;;;;5037781;28;20581;-74
2023/08/31 05:33:28;;;;;;;5.75;2.22;;;13.50;99.90;;;;;;5042015;28;20184;-73
2023/08/31 05:35:54;;;;;;;4.97;2.22;;;13.30;99.90;;;;;;5053877;28;20256;-73
2023/08/31 05:38:20;;;;;;;7.55;2.15;;;13.50;99.90;;;;;;5053444;28;20312;-75
2023/08/31 05:40:46;;;;;;;5.50;2.03;;;13.60;99.90;;;;;;5052082;28;20221;-73
2023/08/31 05:43:15;;;;;;;7.80;2.50;;;13.60;99.90;;;;;;5052329;28;20714;-73
2023/08/31 05:45:41;;;;;;;9.85;2.28;;;13.60;99.90;;;;;;5053384;28;20323;-73
2023/08/31 05:48:08;;;;;;;5.93;1.80;;;13.50;99.90;;;;;;5053778;28;20177;-73
2023/08/31 05:50:33;;;;;;;5.00;2.20;;;13.50;99.90;;;;;;5053383;28;20165;-73
2023/08/31 05:52:59;;;;;;;5.22;2.05;;;;;;;;;;5053223;28;20542;-73
2023/08/31 05:55:25;;;;;;;7.53;2.53;;;13.80;99.90;;;;;;5052276;28;20185;-73
2023/08/31 05:57:51;;;;;;;6.47;2.42;;;13.60;99.90;;;;;;5053522;28;20177;-73
2023/08/31 06:00:17;;;;;;;5.38;2.25;;;13.80;99.90;;;;;;5053348;28;20173;-73
2023/08/31 06:02:47;;;;;;;6.38;2.50;;;13.40;99.90;;;;;;5051994;28;20270;-71
2023/08/31 06:05:13;;;;;;;5.82;2.03;;;13.60;99.90;;;;;;5053387;28;20212;-72
2023/08/31 06:07:39;;;;;;;7.20;2.38;;;13.60;99.90;;;;;;5053344;28;20173;-72
2023/08/31 06:10:05;;;;;;;5.10;2.30;;;13.60;99.90;;;;;;5053051;28;20173;-72
2023/08/31 06:12:31;;;;;;;5.45;2.35;;;13.70;99.90;;;;;;5053192;28;20165;-73
2023/08/31 06:14:57;;;;;;;4.13;2.10;;;13.80;99.90;;;;;;5053028;28;20169;-72
2023/08/31 06:17:22;;;;;;;8.82;2.30;;;13.50;99.90;;;;;;5052950;28;20157;-72
2023/08/31 06:19:48;;;;;;;6.93;2.20;;;13.90;99.90;;;;;;5035185;28;20169;-72
2023/08/31 06:22:14;;;;;;;5.80;2.08;;;14.20;99.90;;;;;;5051721;28;20181;-72
2023/08/31 06:24:39;;;;;;;6.22;2.00;;;13.80;99.90;;;;;;5051596;28;20236;-72
2023/08/31 06:27:05;;;;;;;5.07;1.65;;;14.00;99.90;;;;;;5052736;28;20176;-72
2023/08/31 06:29:31;;;;;;;4.78;1.80;;;13.90;99.90;;;;;;5052659;28;20718;-73
2023/08/31 06:31:56;;;;;;;3.10;1.58;;;13.90;99.90;;;;;;5052796;28;20261;-73
2023/08/31 06:34:22;;;;;;;5.78;1.58;;;13.70;99.90;;;;;;5036079;28;20166;-72
2023/08/31 06:36:48;;;;;;;4.45;2.15;;;13.60;99.90;;;;;;5032973;28;20174;-73
2023/08/31 06:39:13;;;;;;;5.03;1.77;;;13.70;99.90;;;;;;5031288;28;20672;-74
2023/08/31 06:41:39;;;;;;;4.82;1.70;;;13.80;99.90;;;;;;5032553;28;20652;-73
2023/08/31 06:44:05;;;;;;;8.38;1.70;;;13.80;99.90;;;;;;5032597;28;20205;-74
2023/08/31 06:46:34;;;;;;;6.38;2.03;;;13.80;99.90;;;;;;5032218;28;20209;-73
2023/08/31 06:49:00;;;;;;;6.25;2.13;;;13.60;99.90;;;;;;5031097;28;20201;-73
2023/08/31 06:51:25;;;;;;;6.40;1.98;;;13.90;99.90;;;;;;5034318;28;20197;-74
2023/08/31 06:53:51;;;;;;;3.75;1.70;;;13.90;99.90;;;;;;5050914;28;20682;-73
2023/08/31 06:56:17;;;;;;;4.88;1.85;;;13.70;99.90;;;;;;5051109;28;20658;-73
2023/08/31 06:58:43;;;;;;;3.72;1.77;;;13.90;99.90;;;;;;5040219;28;20181;-73
2023/08/31 07:01:09;;;;;;;6.55;2.00;;;14.10;99.90;;;;;;5049849;28;20264;-73
2023/08/31 07:03:34;;;;;;;5.53;2.45;;;14.00;99.90;;;;;;5050553;28;20800;-75
2023/08/31 07:06:00;;;;;;;5.07;1.95;;;14.00;99.90;;;;;;5043859;28;20169;-73
2023/08/31 07:08:26;;;;;;;2.85;1.92;;;13.90;99.90;;;;;;5042299;28;20176;-74
2023/08/31 07:10:52;;;;;;;5.45;2.65;;;13.70;99.90;;;;;;5037551;28;20262;-77
2023/08/31 07:13:17;;;;;;;5.95;2.65;;;13.80;99.90;;;;;;5032781;28;20232;-76
2023/08/31 07:15:43;;;;;;;4.95;2.58;;;13.60;99.90;;;;;;5031857;28;20178;-76
2023/08/31 07:18:09;;;;;;;4.78;2.63;;;13.90;99.90;;;;;;5033334;28;20173;-76
2023/08/31 07:20:35;;;;;;;5.70;2.20;;;13.80;99.90;;;;;;5040552;28;20647;-76
2023/08/31 07:23:00;;;;;;;6.22;2.33;;;13.80;99.90;;;;;;5039622;28;20332;-76
2023/08/31 07:25:27;;;;;;;5.38;2.22;;;13.70;99.90;;;;;;5030721;28;20220;-77
2023/08/31 07:27:53;;;;;;;4.05;1.95;;;13.80;99.90;;;;;;5034817;28;20626;-76
2023/08/31 07:30:18;;;;;;;11.27;2.33;;;13.80;99.90;;;;;;5041442;28;20169;-78
2023/08/31 07:32:44;;;;;;;5.78;2.13;;;13.60;99.90;;;;;;5048379;28;20552;-79
2023/08/31 07:35:09;;;;;;;5.72;1.98;;;13.80;99.90;;;;;;5030349;28;20192;-78
2023/08/31 07:37:37;;;;;;;6.57;2.00;;;13.80;99.90;;;;;;5047124;28;20597;-79
2023/08/31 07:40:08;;;;;;;2.80;1.50;;;13.90;99.90;;;;;;5032092;28;20241;-79
2023/08/31 07:42:34;;;;;;;4.07;1.85;;;14.00;99.90;;;;;;5031768;28;20182;-77
2023/08/31 07:44:59;;;;;;;6.50;1.90;;;13.90;99.90;;;;;;5031606;28;20645;-78
2023/08/31 07:47:25;;;;;;;6.72;1.98;;;13.90;99.90;;;;;;5031318;28;20166;-79
2023/08/31 07:49:50;;;;;;;4.60;1.88;;;13.90;99.90;;;;;;5031492;28;20264;-79
2023/08/31 07:52:16;;;;;;;3.60;1.75;;;13.90;99.90;;;;;;5031433;28;20201;-79
2023/08/31 07:54:42;;;;;;;3.47;1.50;;;14.30;99.90;;;;;;5038412;28;20173;-79
2023/08/31 07:57:08;;;;;;;6.00;1.80;;;13.70;99.90;;;;;;5036274;28;20182;-79
2023/08/31 07:59:33;;;;;;;5.22;1.70;;;14.00;99.90;;;;;;5031394;28;20525;-80
2023/08/31 08:01:59;;;;;;;4.82;1.77;;;13.90;99.90;;;;;;5031206;28;20173;-84
2023/08/31 08:04:25;;;;;;;4.25;1.70;;;13.80;99.90;;;;;;5024376;28;20240;-81
2023/08/31 08:06:51;;;;;;;6.65;1.65;;;13.90;99.90;;;;;;5049739;28;20179;-81
2023/08/31 08:09:17;;;;;;;3.15;1.48;;;13.50;99.90;;;;;;5051131;28;20161;-79
2023/08/31 08:11:43;;;;;;;2.95;1.52;;;13.70;99.90;;;;;;5052242;28;20193;-79
2023/08/31 08:14:09;;;;;;;5.82;1.52;;;13.70;99.90;;;;;;5048674;28;20196;-82
2023/08/31 08:16:35;;;;;;;5.68;1.90;;;13.90;99.90;;;;;;5032834;28;20213;-80
2023/08/31 08:19:01;;;;;;;3.88;1.70;;;13.90;99.90;;;;;;5036806;28;20636;-83
2023/08/31 08:21:26;;;;;;;4.40;1.80;;;13.90;99.90;;;;;;5049064;28;20173;-81
2023/08/31 08:23:52;;;;;;;6.80;2.10;;;14.10;99.90;;;;;;5042009;28;20200;-82
2023/08/31 08:26:18;;;;;;;5.50;1.67;;;14.10;99.90;;;;;;5049114;28;20176;-82
2023/08/31 08:28:44;;;;;;;4.82;1.83;;;14.10;99.90;;;;;;5050518;28;20176;-82
2023/08/31 08:31:10;;;;;;;3.20;1.40;;;14.40;99.90;;;;;;5051779;28;20234;-81
2023/08/31 08:33:35;;;;;;;4.65;1.48;;;14.30;99.90;;;;;;5050944;28;20181;-78
2023/08/31 08:36:01;;;;;;;5.43;1.85;;;14.40;99.90;;;;;;5054764;28;20165;-80
2023/08/31 08:38:26;;;;;;;4.90;1.58;;;14.40;99.90;;;;;;5055082;28;20180;-77
2023/08/31 08:40:52;;;;;;;6.60;1.55;;;14.50;99.90;;;;;;5055951;28;20216;-77
2023/08/31 08:43:26;;;;;;;4.63;1.77;;;14.60;99.90;;;;;;5054185;28;20273;-79
2023/08/31 08:45:53;;;;;;;5.65;1.30;;;14.80;99.90;;;;;;5054918;28;20180;-78
2023/08/31 08:48:20;;;;;;;4.82;1.48;;;14.40;99.90;;;;;;5055229;28;20185;-80
2023/08/31 08:50:45;;;;;;;4.18;1.50;;;14.30;99.90;;;;;;5055021;28;20676;-80
2023/08/31 08:53:13;;;;;;;5.82;1.45;;;;;;;;;;5053946;28;20272;-81
2023/08/31 08:55:41;;;;;;;4.43;1.40;;;13.90;99.90;;;;;;5055226;28;20167;-79
2023/08/31 08:58:06;;;;;;;4.13;1.30;;;13.90;99.90;;;;;;5054686;28;20170;-81
2023/08/31 09:00:33;;;;;;;5.25;1.23;;;14.00;99.90;;;;;;5054654;28;20694;-80
2023/08/31 09:03:01;;;;;;;5.35;1.02;;;15.00;99.90;;;;;;5054532;28;20205;-80
2023/08/31 09:05:27;;;;;;;2.25;1.10;;;;;;;;;;5054679;28;20636;-81
2023/08/31 09:08:09;;;;;;;4.43;1.20;;;14.20;99.90;;;;;;5054270;28;20233;-79
2023/08/31 09:10:44;;;;;;;3.42;0.93;;;14.00;99.90;;;;;;5054538;28;20223;-80
2023/08/31 09:13:15;;;;;;;5.15;1.00;;;13.90;99.90;;;;;;5054308;28;20180;-78
2023/08/31 09:15:46;;;;;;;5.40;1.13;;;14.10;99.90;;;;;;5053857;28;20201;-79
2023/08/31 09:18:34;;;;;;;3.65;0.98;;;14.00;99.90;;;;;;5054310;28;20184;-77
2023/08/31 09:21:01;;;;;;;5.43;1.77;;;13.70;99.90;;;;;;5054318;28;20184;-78
2023/08/31 09:23:27;;;;;;;3.40;1.23;;;13.80;99.90;;;;;;5054036;28;20821;-80
2023/08/31 09:25:54;;;;;;;6.65;1.58;;;13.70;99.90;;;;;;5053941;28;20240;-76
2023/08/31 09:28:22;;;;;;;3.65;1.10;;;13.70;99.90;;;;;;5054056;28;20169;-76
2023/08/31 09:30:49;;;;;;;9.17;1.60;;;13.60;99.90;;;;;;5053961;28;20267;-78
2023/08/31 09:33:17;;;;;;;3.80;1.20;;;13.50;99.90;;;;;;5053844;28;20173;-78
2023/08/31 09:35:55;;;;;;;5.03;1.53;;;13.90;99.90;;;;;;5054031;28;20165;-79
2023/08/31 09:38:21;;;;;;;4.28;1.55;;;13.50;99.90;;;;;;5052933;28;20173;-77
2023/08/31 09:40:47;;;;;;;3.63;0.97;;;13.40;99.90;;;;;;5053899;28;20240;-77
2023/08/31 09:43:23;;;;;;;4.50;1.45;;;13.70;99.90;;;;;;5053644;28;20216;-78
2023/08/31 09:45:49;;;;;;;5.63;1.33;;;13.50;99.90;;;;;;5052941;28;20176;-77
2023/08/31 09:48:16;;;;;;;2.92;0.93;;;13.50;99.90;;;;;;5052093;28;20178;-77
2023/08/31 09:50:45;;;;;;;5.05;1.50;;;13.70;99.90;;;;;;5053497;28;20174;-76
2023/08/31 09:53:11;;;;;;;4.38;1.50;;;13.40;99.90;;;;;;5053712;28;20662;-76
2023/08/31 09:55:39;;;;;;;4.75;1.48;;;13.40;99.90;;;;;;5052195;28;20597;-76
2023/08/31 09:58:07;;;;;;;3.70;1.10;;;13.40;99.90;;;;;;5053661;28;20169;-78
2023/08/31 10:00:36;;;;;;;6.00;1.30;;;13.50;99.90;;;;;;5053651;28;20264;-76
2023/08/31 10:03:04;;;;;;;3.80;1.33;;;13.30;99.90;;;;;;5051822;28;20683;-78
2023/08/31 10:05:30;;;;;;;3.20;1.03;;;13.30;99.90;;;;;;5053449;28;20165;-77
2023/08/31 10:07:58;;;;;;;3.47;1.23;;;13.60;99.90;;;;;;5053273;28;20191;-76
2023/08/31 10:10:24;;;;;;;2.10;0.90;;;13.20;99.90;;;;;;5053200;28;20181;-77
2023/08/31 10:12:51;;;;;;;2.97;1.13;;;13.40;99.90;;;;;;5053283;28;20204;-76
2023/08/31 10:15:18;;;;;;;4.72;1.33;;;13.60;99.90;;;;;;5052913;28;20184;-76
2023/08/31 10:17:44;;;;;;;4.35;1.40;;;13.80;99.90;;;;;;5052570;28;20176;-77
2023/08/31 10:20:12;;;;;;;2.60;1.02;;;13.70;99.90;;;;;;5052845;28;20181;-76
2023/08/31 10:22:38;;;;;;;4.93;1.30;;;13.90;99.90;;;;;;5052926;28;20200;-76
2023/08/31 10:25:06;;;;;;;2.95;1.00;;;16.10;99.90;;;;;;5052661;28;20636;-76
2023/08/31 10:27:50;;;;;;;4.18;1.15;;;13.80;99.90;;;;;;5052831;28;20246;-76
2023/08/31 10:30:25;;;;;;;2.83;1.20;;;14.20;99.90;;;;;;5052974;28;20185;-76
2023/08/31 10:33:09;;;;;;;4.18;1.50;;;14.20;99.90;;;;;;5048618;28;20660;-76
2023/08/31 10:35:47;;;;;;;4.93;1.40;;;14.00;99.90;;;;;;5032735;28;20252;-76
2023/08/31 10:38:23;;;;;;;3.13;1.33;;;14.10;99.90;;;;;;5032824;28;20215;-75
2023/08/31 10:41:07;;;;;;;5.15;1.35;;;;;;;;;;5032666;28;20789;-76
2023/08/31 10:43:58;;;;;;;4.80;1.45;;;14.30;99.90;;;;;;5032440;28;20212;-75
2023/08/31 10:46:35;;;;;;;2.63;1.05;;;14.00;99.90;;;;;;5029618;28;20173;-76
2023/08/31 10:49:14;;;;;;;3.45;1.13;;;13.90;99.90;;;;;;5031282;28;20169;-76
2023/08/31 10:51:42;;;;;;;1.85;1.00;;;14.30;99.90;;;;;;5032447;28;20205;-76
2023/08/31 10:54:23;;;;;;;3.47;1.20;;;14.20;99.90;;;;;;5032504;28;20173;-76
2023/08/31 10:57:00;;;;;;;2.78;1.17;;;14.50;99.90;;;;;;5031621;28;20193;-77
2023/08/31 10:59:40;;;;;;;7.03;1.52;;;14.40;99.90;;;;;;5032487;28;20162;-78
2023/08/31 11:02:06;;;;;;;6.40;1.45;;;14.10;99.90;;;;;;5032314;28;20178;-78
2023/08/31 11:04:56;;;;;;;2.78;1.40;;;14.20;99.90;;;;;;5039814;28;20201;-76
2023/08/31 11:07:26;;;;;;;4.15;1.20;;;14.10;99.90;;;;;;5032159;28;20166;-74
2023/08/31 11:09:52;;;;;;;6.85;1.30;;;14.20;99.90;;;;;;5032062;28;20174;-75
2023/08/31 11:12:23;;;;;;;3.80;1.40;;;14.30;99.90;;;;;;5031830;28;20257;-74
2023/08/31 11:14:49;;;;;;;6.38;1.27;;;14.60;99.90;;;;;;5030669;28;20166;-75
2023/08/31 11:17:14;;;;;;;3.47;1.27;;;14.10;99.90;;;;;;5031736;28;20182;-76
2023/08/31 11:19:41;;;;;;;3.13;1.40;;;14.10;99.90;;;;;;5032135;28;20659;-75
2023/08/31 11:22:09;;;;;;;6.05;1.42;;;;;;;;;;5031762;28;20539;-74
2023/08/31 11:24:35;;;;;;;3.33;1.40;;;14.40;99.90;;;;;;5030610;28;20300;-75
2023/08/31 11:27:03;;;;;;;3.35;1.83;;;14.20;99.90;;;;;;5030810;28;20649;-76
2023/08/31 11:29:29;;;;;;;3.42;1.30;;;14.50;99.90;;;;;;5031829;28;20170;-76
2023/08/31 11:31:58;;;;;;;6.10;1.85;;;14.40;99.90;;;;;;5030997;28;20185;-75
2023/08/31 11:34:24;;;;;;;5.18;1.60;;;14.50;99.90;;;;;;5048567;28;20173;-76
2023/08/31 11:36:50;;;;;;;2.08;1.17;;;14.40;99.90;;;;;;5051584;28;20172;-76
2023/08/31 11:39:17;;;;;;;4.18;1.60;;;14.20;99.90;;;;;;5051473;28;20177;-76
2023/08/31 11:41:43;;;;;;;3.35;1.35;;;14.40;99.90;;;;;;5051326;28;20743;-77
2023/08/31 11:44:12;;;;;;;4.22;1.20;;;14.70;99.90;;;;;;5051169;28;20304;-76
2023/08/31 11:46:41;;;;;;;2.90;1.30;;;14.70;99.90;;;;;;5051364;28;20251;-77
2023/08/31 11:49:08;;;;;;;2.60;1.40;;;14.40;99.90;;;;;;5051336;28;20201;-76
2023/08/31 11:51:35;;;;;;;3.90;1.30;;;14.70;99.90;;;;;;5050762;28;20172;-75
2023/08/31 11:54:02;;;;;;;2.17;0.98;;;14.90;99.90;;;;;;5050826;28;20177;-76
2023/08/31 11:56:39;;;;;;;4.95;1.40;;;14.70;99.90;;;;;;5051033;28;20185;-77
2023/08/31 11:59:09;;;;;;;2.95;1.30;;;14.70;99.90;;;;;;5049803;28;20679;-77
2023/08/31 12:01:40;;;;;;;1.95;1.10;;;15.00;99.90;;;;;;5051109;28;20218;-76
2023/08/31 12:04:27;;;;;;;2.20;1.30;;;15.00;99.90;;;;;;5049699;28;20719;-76
2023/08/31 12:07:00;;;;;;;2.08;0.95;;;16.80;99.90;;;;;;5051188;28;20181;-76
2023/08/31 12:09:28;;;;;;;2.83;1.35;;;13.50;99.90;;;;;;5050764;28;20201;-77
2023/08/31 12:11:54;;;;;;;3.70;1.20;;;15.10;99.90;;;;;;5049810;28;20530;-76
2023/08/31 12:14:21;;;;;;;2.33;1.30;;;15.10;99.90;;;;;;5049916;28;20181;-74
2023/08/31 12:16:47;;;;;;;2.42;1.40;;;15.00;99.90;;;;;;5050941;28;20176;-74
2023/08/31 12:19:13;;;;;;;2.25;1.70;;;15.00;99.90;;;;;;5050882;28;20166;-74
2023/08/31 12:21:39;;;;;;;2.30;1.38;;;15.00;99.90;;;;;;5050732;28;20192;-75
2023/08/31 12:24:06;;;;;;;4.93;1.27;;;15.30;99.90;;;;;;5050203;28;20671;-75
2023/08/31 12:26:31;;;;;;;1.83;1.35;;;15.40;99.90;;;;;;5051032;28;20177;-75
2023/08/31 12:28:57;;;;;;;3.63;1.17;;;15.40;99.90;;;;;;5050747;28;20176;-74
2023/08/31 12:31:24;;;;;;;3.35;1.40;;;15.10;99.90;;;;;;5050951;28;20531;-74
2023/08/31 12:33:50;;;;;;;4.45;1.48;;;15.00;99.90;;;;;;5037539;28;20656;-74
2023/08/31 12:36:16;;;;;;;2.55;1.17;;;;;;;;;;5030920;28;20200;-74
2023/08/31 12:38:41;;;;;;;2.47;1.50;;;15.20;99.90;;;;;;5030909;28;20202;-75
2023/08/31 12:41:07;;;;;;;2.92;1.42;;;15.20;99.90;;;;;;5030620;28;20209;-75
2023/08/31 12:43:34;;;;;;;3.00;1.23;;;15.30;99.90;;;;;;5030858;28;20210;-74
2023/08/31 12:45:59;;;;;;;3.05;1.30;;;15.40;99.90;;;;;;5030764;28;20249;-75
2023/08/31 12:48:26;;;;;;;3.10;1.40;;;15.40;99.90;;;;;;5035252;28;20201;-75
2023/08/31 12:50:53;;;;;;;2.08;1.30;;;15.40;99.90;;;;;;5031124;28;20193;-75
2023/08/31 12:53:20;;;;;;;2.03;1.13;;;15.50;99.90;;;;;;5033248;28;20192;-75